This is the latest recevied weather packets stored in our database for station/object EA1FBN. If no packets are shown the sender has not sent any weather packets the latest 10 day(s).
| Time | Temp. | Humidity | Pressure | Rain* | Wind** | Luminosity | Snow |
|---|---|---|---|---|---|---|---|
| 1777865116 | 10° C | 49% | 1013 hPa | 0 mm | - | - | - |
| 1777864816 | 10° C | 49% | 1013 hPa | 0 mm | - | - | - |
| 1777847117 | 10.56° C | 74% | 1013.6 hPa | 0 mm | - | - | - |
| 1777846817 | 10.56° C | 74% | 1013.6 hPa | 0 mm | - | - | - |
| 1777839918 | 11.11° C | 75% | 1012.9 hPa | 0 mm | - | - | - |
| 1777839318 | 11.11° C | 75% | 1012.7 hPa | 0 mm | - | - | - |
| 1777838718 | 11.11° C | 75% | 1012.7 hPa | 0 mm | - | - | - |
| 1777838418 | 11.11° C | 75% | 1012.5 hPa | 0 mm | - | - | - |
| 1777838118 | 11.67° C | 75% | 1012.5 hPa | 0 mm | - | - | - |
| 1777837818 | 11.67° C | 75% | 1012.5 hPa | 0 mm | - | - | - |
| 1777837521 | 11.67° C | 75% | 1012.3 hPa | 0 mm | - | - | - |
| 1777835118 | 13.89° C | 66% | 1011.5 hPa | 0 mm | - | - | - |
| 1777834818 | 14.44° C | 64% | 1011.3 hPa | 0 mm | - | - | - |
| 1777834218 | 15° C | 61% | 1011.1 hPa | 0 mm | - | - | - |
| 1777833018 | 16.11° C | 56% | 1010.9 hPa | 0 mm | - | - | - |
| 1777832718 | 16.11° C | 57% | 1010.9 hPa | 0 mm | - | - | - |
| 1777832418 | 16.67° C | 55% | 1010.9 hPa | 0 mm | - | - | - |
| 1777831818 | 16.67° C | 53% | 1010.9 hPa | 0 mm | - | - | - |
| 1777831218 | 16.67° C | 51% | 1010.8 hPa | 0 mm | - | - | - |
| 1777829718 | 17.22° C | 55% | 1010.8 hPa | 0 mm | - | - | - |
| 1777828518 | 16.67° C | 62% | 1010.8 hPa | 0 mm | - | - | - |
| 1777821019 | 16.67° C | 62% | 1011.2 hPa | 0 mm | - | - | - |
| 1777820419 | 16.67° C | 60% | 1011.3 hPa | 0 mm | - | - | - |
| 1777819819 | 16.67° C | 59% | 1011.4 hPa | 0 mm | - | - | - |
| 1777819219 | 16.11° C | 62% | 1011.5 hPa | 0 mm | - | - | - |
* Rain latest hour (hover to see other rain measurements)
** Current wind speed in m/s (hover to see current wind gust speed)